Time;durP1;ratioP1;P1;durP2;ratioP2;P2;SDS_P1;SDS_P2;PMS_P1;PMS_P2;Temp;Humidity;BMP_temperature;BMP_pressure;BME280_temperature;BME280_humidity;BME280_pressure;Samples;Min_cycle;Max_cycle;Signal;HPM_P1;HPM_P2
2022/11/23 00:00:20;;;;;;;10.45;3.50;;;;;;;7.97;83.77;99070.28;4935538;29;20094;-77
2022/11/23 00:03:24;;;;;;;12.43;5.70;;;;;;;7.97;83.41;99065.91;4935312;29;20179;-77
2022/11/23 00:06:27;;;;;;;10.85;2.95;;;;;;;7.84;84.80;99062.41;4935423;29;20086;-77
2022/11/23 00:09:32;;;;;;;12.52;4.45;;;;;;;7.88;84.60;99069.09;4935105;29;20046;-76
2022/11/23 00:12:35;;;;;;;;;;;;;;;7.90;84.23;99070.66;4935635;29;20064;-76
2022/11/23 00:15:40;;;;;;;15.37;6.40;;;;;;;7.91;83.02;99067.16;4935459;29;19929;-76
2022/11/23 00:18:46;;;;;;;9.20;3.22;;;;;;;7.97;82.90;99067.66;4935211;29;20046;-77
2022/11/23 00:21:49;;;;;;;13.43;2.70;;;;;;;7.88;83.39;99066.47;4935045;29;20100;-77
2022/11/23 00:24:52;;;;;;;11.85;3.53;;;;;;;7.90;82.30;99070.66;4935110;29;20107;-77
2022/11/23 00:27:55;;;;;;;;;;;;;;;7.92;83.39;99073.19;4935717;29;20059;-77
2022/11/23 00:31:00;;;;;;;12.40;1.90;;;;;;;7.99;81.59;99071.84;4935185;29;20337;-76
2022/11/23 00:34:04;;;;;;;6.32;1.65;;;;;;;8.10;80.88;99077.22;4932675;29;20046;-77
2022/11/23 00:37:07;;;;;;;10.90;1.65;;;;;;;8.10;82.64;99079.81;4922544;29;20050;-76
2022/11/23 00:40:11;;;;;;;12.45;1.73;;;;;;;8.05;83.06;99084.47;4923038;29;20584;-76
2022/11/23 00:43:15;;;;;;;10.48;1.90;;;;;;;8.11;82.51;99081.47;4934461;29;20043;-77
2022/11/23 00:46:25;;;;;;;6.72;2.20;;;;;;;8.12;82.42;99082.28;4934659;29;20053;-77
2022/11/23 00:49:28;;;;;;;7.72;2.25;;;;;;;8.03;82.24;99088.94;4923039;29;20479;-78
2022/11/23 00:52:31;;;;;;;10.15;2.20;;;;;;;8.12;82.93;99085.72;4923090;29;20046;-77
2022/11/23 00:55:35;;;;;;;;;;;;;;;8.18;82.72;99084.50;4935196;29;20047;-77
2022/11/23 00:58:42;;;;;;;7.00;1.85;;;;;;;8.03;83.00;99083.72;4935064;29;19953;-76
2022/11/23 01:01:47;;;;;;;7.85;1.80;;;;;;;8.10;82.28;99087.63;4934541;29;20055;-76
2022/11/23 01:04:51;;;;;;;8.98;1.85;;;;;;;8.07;82.18;99086.97;4934628;29;20047;-76
2022/11/23 01:07:54;;;;;;;9.68;2.22;;;;;;;8.04;83.92;99098.44;4922932;29;20446;-76
2022/11/23 01:11:04;;;;;;;5.35;1.50;;;;;;;8.01;83.48;99093.41;4934587;29;20071;-76
2022/11/23 01:14:11;;;;;;;7.18;1.95;;;;;;;8.04;82.49;99090.63;4922730;29;20062;-76
2022/11/23 01:17:16;;;;;;;6.88;1.75;;;;;;;8.03;81.96;99094.13;4934716;29;20131;-76
2022/11/23 01:20:20;;;;;;;6.70;1.52;;;;;;;8.06;82.53;99099.16;4922728;29;20083;-76
2022/11/23 01:23:23;;;;;;;7.57;2.03;;;;;;;8.11;83.25;99101.47;4934381;29;20047;-76
2022/11/23 01:26:27;;;;;;;8.55;1.92;;;;;;;8.12;82.22;99097.91;4941249;29;20066;-76
2022/11/23 01:29:34;;;;;;;6.05;1.80;;;;;;;8.10;83.08;99111.06;4953539;28;20528;-77
2022/11/23 01:32:37;;;;;;;10.02;1.98;;;;;;;8.11;83.38;99112.72;4957108;29;20049;-77
2022/11/23 01:35:40;;;;;;;;;;;;;;;8.06;83.11;99119.97;4945733;29;20059;-77
2022/11/23 01:38:45;;;;;;;7.70;1.80;;;;;;;8.08;82.05;99115.50;4957041;29;19988;-77
2022/11/23 01:41:48;;;;;;;12.02;1.98;;;;;;;8.18;83.50;99117.53;4945174;29;20554;-77
2022/11/23 01:45:32;;;;;;;6.78;1.95;;;;;;;8.27;82.70;99124.75;4945398;29;20082;-76
2022/11/23 01:48:46;;;;;;;12.30;1.92;;;;;;;8.14;82.21;99109.91;4956882;29;20050;-77
2022/11/23 01:51:53;;;;;;;10.70;2.70;;;;;;;8.04;82.04;99119.25;4944923;29;20437;-77
2022/11/23 01:54:57;;;;;;;9.77;2.13;;;;;;;8.11;82.18;99133.53;4956872;29;20111;-76
2022/11/23 01:58:03;;;;;;;8.52;1.83;;;;;;;8.11;82.80;99125.72;4956793;29;20516;-76
2022/11/23 02:01:07;;;;;;;8.13;1.63;;;;;;;8.14;83.34;99122.94;4956760;29;20042;-76
2022/11/23 02:04:28;;;;;;;9.38;2.10;;;;;;;8.04;82.37;99121.84;4944760;29;20051;-76
2022/11/23 02:07:32;;;;;;;8.77;2.00;;;;;;;8.04;83.08;99124.47;4956801;29;20117;-77
2022/11/23 02:10:35;;;;;;;7.95;1.80;;;;;;;8.03;82.62;99134.94;4944636;29;20081;-76
2022/11/23 02:13:41;;;;;;;7.90;1.80;;;;;;;8.10;83.28;99116.25;4956495;29;20138;-76
2022/11/23 02:16:45;;;;;;;11.40;2.13;;;;;;;8.09;84.20;99132.78;4956399;29;20071;-76
2022/11/23 02:20:14;;;;;;;;;;;;;;;8.20;83.78;99128.66;4956892;29;20054;-75
2022/11/23 02:23:36;;;;;;;8.55;2.03;;;;;;;8.15;83.62;99131.56;4944312;29;19920;-74
2022/11/23 02:26:40;;;;;;;8.30;1.80;;;;;;;8.08;84.12;99125.91;4956159;29;20425;-74
2022/11/23 02:29:47;;;;;;;7.97;1.90;;;;;;;8.04;84.40;99128.81;4944237;29;20078;-74
2022/11/23 02:32:50;;;;;;;15.95;2.28;;;;;;;8.18;84.09;99128.78;4956151;29;20462;-74
2022/11/23 02:35:56;;;;;;;13.45;2.20;;;;;;;8.14;84.14;99124.69;4944330;29;20127;-74
2022/11/23 02:39:08;;;;;;;12.05;3.00;;;;;;;8.14;83.87;99129.91;4955850;29;20039;-73
2022/11/23 02:42:11;;;;;;;8.57;1.98;;;;;;;8.11;84.19;99123.13;4956350;28;20050;-73
2022/11/23 02:45:23;;;;;;;11.50;2.40;;;;;;;7.96;85.53;99120.66;4956035;29;20054;-74
2022/11/23 02:48:27;;;;;;;11.18;1.92;;;;;;;8.10;86.01;99120.59;4954856;29;20130;-74
2022/11/23 02:51:31;;;;;;;9.57;2.30;;;;;;;8.05;85.84;99123.50;4954734;29;20053;-74
2022/11/23 02:54:34;;;;;;;;;;;;;;;8.02;85.59;99128.91;4955403;29;20572;-74
2022/11/23 02:57:38;;;;;;;11.57;2.50;;;;;;;8.10;86.22;99121.47;4942693;29;20010;-75
2022/11/23 03:00:41;;;;;;;9.98;1.70;;;;;;;8.06;84.97;99117.38;4942668;29;20527;-76
2022/11/23 03:03:44;;;;;;;11.30;1.73;;;;;;;7.96;86.34;99124.09;4954644;29;20050;-76
2022/11/23 03:06:47;;;;;;;;;;;;;;;7.98;86.92;99130.06;4943103;29;20046;-76
2022/11/23 03:09:51;;;;;;;7.22;1.80;;;;;;;8.03;86.71;99127.97;4954593;29;19926;-77
2022/11/23 03:12:56;;;;;;;5.85;1.30;;;;;;;8.10;86.62;99128.41;4942593;29;20046;-77
2022/11/23 03:15:59;;;;;;;10.70;3.72;;;;;;;7.98;86.70;99140.47;4942623;29;20050;-76
2022/11/23 03:19:03;;;;;;;;;;;;;;;8.09;86.43;99127.59;4954866;29;20043;-77
2022/11/23 03:22:07;;;;;;;6.97;1.55;;;;;;;8.08;86.32;99131.13;4942553;29;20391;-76
2022/11/23 03:25:11;;;;;;;10.90;2.45;;;;;;;7.94;87.24;99133.75;4942491;29;20194;-76
2022/11/23 03:28:15;;;;;;;9.93;1.70;;;;;;;7.91;87.69;99139.16;4942367;29;20553;-77
2022/11/23 03:31:19;;;;;;;10.00;1.90;;;;;;;7.99;87.53;99136.09;4942549;29;20058;-77
2022/11/23 03:34:31;;;;;;;8.32;2.15;;;;;;;7.85;88.26;99139.56;4942353;29;20050;-77
2022/11/23 03:37:34;;;;;;;;;;;;;;;7.76;88.69;99135.78;4942499;29;20046;-76
2022/11/23 03:40:38;;;;;;;5.90;1.30;;;;;;;7.84;88.73;99145.69;4942119;29;19942;-77
2022/11/23 03:43:52;;;;;;;9.52;1.58;;;;;;;7.93;88.77;99139.91;4942094;29;20417;-77
2022/11/23 03:46:55;;;;;;;8.77;1.85;;;;;;;8.08;88.10;99145.91;4854636;29;2577607;-77
2022/11/23 03:49:58;;;;;;;;;;;;;;;7.90;88.63;99146.13;4955084;29;20054;-77
2022/11/23 03:53:02;;;;;;;7.35;1.67;;;;;;;8.05;88.31;99149.53;4942313;28;20048;-77
2022/11/23 03:56:05;;;;;;;8.57;1.80;;;;;;;7.99;88.56;99134.31;4942534;29;20046;-77
2022/11/23 03:59:12;;;;;;;8.13;2.20;;;;;;;7.97;88.36;99138.78;4942691;29;20068;-77
2022/11/23 04:02:16;;;;;;;8.18;2.00;;;;;;;7.89;89.10;99139.28;4942835;29;20046;-77
2022/11/23 04:05:26;;;;;;;12.32;2.03;;;;;;;7.88;89.58;99141.97;4942423;29;20050;-77
2022/11/23 04:08:56;;;;;;;9.63;1.98;;;;;;;7.89;89.68;99141.03;4954215;29;20508;-77
2022/11/23 04:12:15;;;;;;;7.82;2.05;;;;;;;7.72;90.49;99138.66;4942384;29;20511;-77
2022/11/23 04:15:20;;;;;;;6.72;2.20;;;;;;;7.79;90.29;99134.75;4942429;29;20175;-77
2022/11/23 04:18:23;;;;;;;10.13;1.77;;;;;;;7.80;90.45;99134.66;4954158;29;20046;-77
2022/11/23 04:21:26;;;;;;;;;;;;;;;7.72;90.67;99139.47;4942985;29;20094;-77
2022/11/23 04:24:29;;;;;;;13.15;2.33;;;;;;;7.84;90.18;99140.50;4942381;29;19922;-76
2022/11/23 04:27:36;;;;;;;9.35;2.30;;;;;;;7.73;90.63;99128.16;4942301;29;20090;-76
2022/11/23 04:30:39;;;;;;;8.82;1.70;;;;;;;7.61;91.46;99139.34;4942194;29;20079;-75
2022/11/23 04:33:43;;;;;;;8.63;2.22;;;;;;;7.78;90.75;99135.66;4942191;29;20082;-76
2022/11/23 04:36:49;;;;;;;6.68;1.35;;;;;;;7.73;90.92;99135.13;4953943;29;20114;-76
2022/11/23 04:39:55;;;;;;;9.77;2.70;;;;;;;7.80;90.64;99139.03;4942300;29;20098;-77
2022/11/23 04:43:13;;;;;;;8.63;1.83;;;;;;;7.79;90.45;99134.75;4942096;29;20066;-74
2022/11/23 04:46:17;;;;;;;9.80;1.75;;;;;;;7.65;90.48;99144.22;4941850;29;20058;-76
2022/11/23 04:49:24;;;;;;;10.68;2.25;;;;;;;7.80;89.93;99139.84;4941759;29;20113;-76
2022/11/23 04:52:30;;;;;;;8.20;1.60;;;;;;;7.74;89.87;99147.22;4941781;29;20652;-76
2022/11/23 04:55:35;;;;;;;8.13;2.10;;;;;;;7.72;90.03;99144.69;4942082;29;20049;-75
2022/11/23 04:58:39;;;;;;;9.00;1.90;;;;;;;7.73;89.90;99150.75;4953794;29;20050;-75
2022/11/23 05:01:43;;;;;;;6.88;1.45;;;;;;;7.61;87.66;99158.38;4942188;29;20041;-74
2022/11/23 05:05:05;;;;;;;7.95;1.80;;;;;;;7.65;88.97;99156.41;4954544;28;20536;-75
2022/11/23 05:08:09;;;;;;;8.70;1.65;;;;;;;7.66;88.89;99156.34;4945946;29;20046;-73
2022/11/23 05:11:33;;;;;;;9.63;1.77;;;;;;;7.74;88.72;99155.00;4957600;29;20106;-74
2022/11/23 05:14:37;;;;;;;6.80;1.65;;;;;;;7.76;88.36;99155.75;4945434;29;20050;-76
2022/11/23 05:17:41;;;;;;;7.22;1.65;;;;;;;7.85;87.85;99145.63;4957888;29;20050;-76
2022/11/23 05:20:51;;;;;;;9.38;1.73;;;;;;;7.74;87.99;99153.25;4945421;29;20042;-76
2022/11/23 05:23:54;;;;;;;10.38;2.28;;;;;;;7.71;88.48;99152.59;4937633;29;20113;-77
2022/11/23 05:26:57;;;;;;;;;;;;;;;7.82;87.47;99150.19;4941249;29;20130;-75
2022/11/23 05:30:01;;;;;;;6.38;1.25;;;;;;;7.83;87.58;99157.03;4940982;29;19926;-74
2022/11/23 05:33:12;;;;;;;14.65;2.97;;;;;;;7.81;87.94;99158.91;4922085;29;20520;-78
2022/11/23 05:36:16;;;;;;;9.63;2.60;;;;;;;7.77;87.91;99147.84;4920558;29;20168;-75
2022/11/23 05:39:20;;;;;;;12.02;2.20;;;;;;;7.75;87.79;99161.88;4931975;29;20042;-77
2022/11/23 05:42:30;;;;;;;11.35;2.33;;;;;;;7.76;87.88;99156.59;4921543;29;20572;-74
2022/11/23 05:45:39;;;;;;;12.75;2.53;;;;;;;7.64;88.86;99160.78;4920238;29;20067;-76
2022/11/23 05:48:43;;;;;;;10.60;2.20;;;;;;;7.79;88.14;99160.78;4920231;29;20102;-75
2022/11/23 05:51:47;;;;;;;8.95;1.80;;;;;;;7.73;88.45;99162.00;4936871;29;20793;-75
2022/11/23 05:54:50;;;;;;;;;;;;;;;7.75;88.37;99154.06;4940899;29;20608;-76
2022/11/23 05:57:54;;;;;;;9.52;4.00;;;;;;;7.77;88.17;99160.03;4952068;29;19922;-77
2022/11/23 06:00:59;;;;;;;6.97;1.88;;;;;;;7.60;89.13;99164.50;4952630;29;20090;-77
2022/11/23 06:04:06;;;;;;;6.57;1.90;;;;;;;7.65;88.88;99166.81;4940981;29;20053;-78
2022/11/23 06:07:15;;;;;;;6.65;1.50;;;;;;;7.76;88.21;99155.75;4939851;29;20046;-77
2022/11/23 06:10:41;;;;;;;7.78;1.70;;;;;;;7.67;88.54;99157.16;4940441;29;20370;-77
2022/11/23 06:13:46;;;;;;;;;;;;;;;7.69;88.46;99156.16;4929464;29;20071;-76
2022/11/23 06:17:35;;;;;;;11.02;3.20;;;;;;;7.67;88.23;99171.00;4939963;29;20383;-83
2022/11/23 06:21:34;;;;;;;7.53;1.90;;;;;;;7.62;88.61;99167.00;4900948;29;20061;-77
2022/11/23 06:24:37;;;;;;;6.75;2.10;;;;;;;7.72;88.45;99151.66;4952938;29;20130;-77
2022/11/23 06:28:10;;;;;;;10.07;2.13;;;;;;;7.74;88.25;99163.66;4941323;29;20059;-76
2022/11/23 06:31:20;;;;;;;13.43;1.92;;;;;;;7.72;88.80;99164.66;4941446;29;20619;-77
2022/11/23 06:34:23;;;;;;;10.80;1.75;;;;;;;7.57;89.05;99162.09;4940274;29;20090;-77
2022/11/23 06:37:27;;;;;;;10.82;2.40;;;;;;;7.62;88.94;99149.63;4929558;29;20163;-77
2022/11/23 06:40:32;;;;;;;11.32;2.08;;;;;;;7.66;88.67;99158.94;4921562;29;20103;-77
2022/11/23 06:43:36;;;;;;;13.00;2.25;;;;;;;7.65;88.13;99172.03;4921194;29;20051;-77
2022/11/23 06:46:39;;;;;;;9.30;1.90;;;;;;;7.73;88.25;99168.97;4913381;29;20055;-76
2022/11/23 06:49:42;;;;;;;;;;;;;;;7.68;88.21;99179.63;4925627;29;20051;-78
2022/11/23 06:53:01;;;;;;;6.95;1.55;;;;;;;7.60;88.47;99187.94;4931163;29;19970;-79
2022/11/23 06:56:19;;;;;;;10.20;1.98;;;;;;;7.69;88.36;99192.56;4931516;29;20721;-78
2022/11/23 06:59:22;;;;;;;9.98;1.98;;;;;;;7.69;88.39;99189.97;4931465;29;20047;-77
2022/11/23 07:02:26;;;;;;;7.45;1.80;;;;;;;7.72;88.94;99190.69;4931512;29;20050;-77
2022/11/23 07:05:31;;;;;;;13.00;2.38;;;;;;;7.69;89.21;99191.75;4914498;29;20050;-77
2022/11/23 07:08:38;;;;;;;6.90;1.40;;;;;;;7.60;89.17;99192.31;4913511;29;20203;-77
2022/11/23 07:11:55;;;;;;;10.55;2.53;;;;;;;7.60;89.28;99198.34;4913065;29;20422;-77
2022/11/23 07:14:58;;;;;;;;;;;;;;;7.71;88.69;99195.06;4914481;29;20051;-77
2022/11/23 07:18:03;;;;;;;;;;;;;;;7.64;88.78;99199.81;4924112;29;19921;-77
2022/11/23 07:21:07;;;;;;;12.45;3.03;;;;;;;7.64;89.04;99202.41;4933164;29;20333;-77
2022/11/23 07:24:11;;;;;;;10.80;1.90;;;;;;;7.66;88.42;99203.16;4932289;29;20623;-77
2022/11/23 07:27:16;;;;;;;12.90;2.13;;;;;;;7.71;87.68;99207.25;4931245;29;20062;-77
2022/11/23 07:30:21;;;;;;;9.55;2.42;;;;;;;7.88;83.01;99207.03;4931232;29;20744;-76
2022/11/23 07:33:25;;;;;;;12.90;2.70;;;;;;;7.96;81.95;99219.56;4912672;29;20138;-76
2022/11/23 07:36:28;;;;;;;10.88;2.45;;;;;;;7.96;83.76;99223.00;4912639;29;20570;-77
2022/11/23 07:39:32;;;;;;;13.23;2.50;;;;;;;7.97;81.89;99222.06;4912764;29;20047;-76
2022/11/23 07:42:38;;;;;;;;;;;;;;;7.97;82.64;99232.47;4913474;29;20055;-74
2022/11/23 07:45:41;;;;;;;8.82;2.80;;;;;;;7.92;82.43;99226.75;4916569;29;19959;-77
2022/11/23 07:48:53;;;;;;;13.63;3.38;;;;;;;7.90;82.35;99231.19;4939009;29;20054;-77
2022/11/23 07:51:56;;;;;;;22.10;7.78;;;;;;;7.87;82.13;99233.97;4950952;29;20066;-77
2022/11/23 07:54:59;;;;;;;11.15;4.93;;;;;;;7.89;81.92;99232.13;4951022;29;20054;-77
2022/11/23 07:58:04;;;;;;;8.10;2.72;;;;;;;7.85;80.95;99238.47;4951074;29;20086;-77
2022/11/23 08:01:16;;;;;;;13.25;3.40;;;;;;;7.83;81.46;99232.50;4950418;29;20046;-72
2022/11/23 08:04:20;;;;;;;10.43;3.08;;;;;;;7.74;81.75;99236.50;4950682;29;20633;-73
2022/11/23 08:07:23;;;;;;;;;;;;;;;7.79;81.10;99234.47;4951483;29;20447;-73
2022/11/23 08:10:31;;;;;;;11.73;3.40;;;;;;;7.85;81.03;99230.66;4949949;29;19926;-73
2022/11/23 08:13:39;;;;;;;28.08;9.02;;;;;;;7.85;80.45;99234.09;4950346;29;20053;-72
2022/11/23 08:16:42;;;;;;;22.52;8.88;;;;;;;7.92;80.41;99224.13;4948977;29;20107;-72
2022/11/23 08:19:48;;;;;;;40.60;18.48;;;;;;;7.96;82.28;99230.81;4949559;29;20046;-75
2022/11/23 08:22:55;;;;;;;24.55;9.75;;;;;;;7.96;79.68;99230.81;4949602;29;20303;-73
2022/11/23 08:26:03;;;;;;;45.03;25.52;;;;;;;7.93;79.15;99236.22;4949234;29;20126;-73
2022/11/23 08:29:06;;;;;;;20.90;7.65;;;;;;;7.86;78.95;99234.94;4945835;29;20041;-73
2022/11/23 08:32:11;;;;;;;;;;;;;;;7.89;78.43;99240.78;4930258;29;20098;-73
2022/11/23 08:35:14;;;;;;;16.30;4.90;;;;;;;7.95;77.52;99243.94;4929714;29;20005;-75
2022/11/23 08:38:17;;;;;;;;;;;;;;;7.96;76.77;99245.59;4931345;29;20106;-75
2022/11/23 08:41:21;;;;;;;14.07;3.70;;;;;;;7.94;77.56;99243.06;4930533;29;19925;-76
2022/11/23 08:44:24;;;;;;;19.98;7.65;;;;;;;7.91;77.71;99246.72;4929757;29;20184;-75
2022/11/23 08:47:31;;;;;;;15.68;6.88;;;;;;;7.88;75.97;99246.91;4929659;29;20590;-75
2022/11/23 08:50:34;;;;;;;13.13;3.65;;;;;;;7.82;78.07;99243.84;4929701;29;20074;-76
2022/11/23 08:53:37;;;;;;;10.95;3.47;;;;;;;7.81;76.44;99236.97;4929589;29;20042;-77
2022/11/23 08:56:41;;;;;;;12.38;3.35;;;;;;;7.93;74.71;99244.84;4929936;29;20082;-75
2022/11/23 08:59:45;;;;;;;15.02;3.13;;;;;;;7.96;76.14;99243.84;4930030;29;20059;-76
2022/11/23 09:02:48;;;;;;;11.38;2.65;;;;;;;7.98;74.58;99239.38;4930457;29;20055;-75
2022/11/23 09:05:53;;;;;;;13.85;3.30;;;;;;;7.99;74.80;99241.03;4929777;29;20132;-76
2022/11/23 09:08:56;;;;;;;20.95;9.57;;;;;;;8.02;74.44;99243.44;4929656;29;20048;-76
2022/11/23 09:12:00;;;;;;;22.30;13.43;;;;;;;8.04;74.29;99246.81;4929301;29;20047;-76
2022/11/23 09:15:06;;;;;;;11.38;4.25;;;;;;;8.01;74.42;99254.81;4929520;29;20054;-76
2022/11/23 09:18:12;;;;;;;14.25;5.97;;;;;;;8.06;74.77;99252.75;4929934;29;20046;-76
2022/11/23 09:21:16;;;;;;;13.73;4.32;;;;;;;8.12;75.02;99251.53;4930150;29;20043;-75
2022/11/23 09:24:21;;;;;;;8.95;2.55;;;;;;;8.04;74.77;99254.63;4930147;29;20106;-72
2022/11/23 09:27:24;;;;;;;13.63;4.20;;;;;;;8.11;74.21;99253.28;4940120;29;20046;-75
2022/11/23 09:30:27;;;;;;;;;;;;;;;8.16;73.73;99256.44;4948901;29;20572;-75
2022/11/23 09:33:31;;;;;;;16.70;4.97;;;;;;;8.12;72.98;99257.56;4948455;29;19921;-75
2022/11/23 09:36:34;;;;;;;12.88;4.68;;;;;;;8.13;73.18;99256.63;4947925;29;20082;-75
2022/11/23 09:39:38;;;;;;;15.73;5.28;;;;;;;8.10;73.21;99251.63;4948939;29;20458;-75
2022/11/23 09:43:02;;;;;;;16.88;6.63;;;;;;;8.12;73.59;99257.56;4929773;29;20174;-76
2022/11/23 09:46:34;;;;;;;12.02;3.97;;;;;;;8.13;73.25;99261.81;4929185;29;20050;-75
2022/11/23 09:49:40;;;;;;;13.80;3.53;;;;;;;8.18;72.98;99265.94;4929717;29;20047;-75
2022/11/23 09:52:47;;;;;;;10.63;3.92;;;;;;;8.19;73.06;99258.00;4932197;29;20090;-76
2022/11/23 09:55:54;;;;;;;8.85;2.53;;;;;;;8.22;72.62;99247.41;4940219;29;20050;-75
2022/11/23 09:59:10;;;;;;;11.48;2.92;;;;;;;8.27;72.86;99244.53;4951083;29;20485;-76
2022/11/23 10:02:21;;;;;;;10.95;2.22;;;;;;;8.25;74.58;99249.81;4950482;29;20556;-75
2022/11/23 10:05:35;;;;;;;14.65;2.83;;;;;;;8.37;73.26;99256.03;4950373;29;20078;-76
2022/11/23 10:09:16;;;;;;;12.13;2.50;;;;;;;8.42;72.47;99246.16;4950306;29;20055;-75
2022/11/23 10:12:39;;;;;;;11.70;3.33;;;;;;;8.57;72.42;99242.59;4951786;29;20054;-75
2022/11/23 10:16:12;;;;;;;16.77;6.10;;;;;;;8.71;73.39;99240.84;4952641;29;20102;-77
2022/11/23 10:20:04;;;;;;;10.65;2.88;;;;;;;8.75;72.19;99244.97;4942521;29;20194;-75
2022/11/23 10:23:33;;;;;;;11.60;2.45;;;;;;;8.77;71.22;99235.25;4952561;29;20054;-75
2022/11/23 10:26:40;;;;;;;13.40;3.97;;;;;;;8.66;70.23;99240.34;4932268;29;20046;-76
2022/11/23 10:29:45;;;;;;;14.55;2.97;;;;;;;8.88;70.65;99248.44;4932093;29;20099;-76
2022/11/23 10:33:07;;;;;;;11.80;1.90;;;;;;;8.85;70.05;99243.41;4932067;29;20417;-76
2022/11/23 10:36:12;;;;;;;8.40;1.88;;;;;;;8.86;69.15;99247.69;4932832;29;20041;-76
2022/11/23 10:39:22;;;;;;;8.60;2.33;;;;;;;8.82;69.66;99247.03;4944068;29;20050;-75
2022/11/23 10:42:54;;;;;;;13.05;2.92;;;;;;;8.99;69.58;99256.34;4952065;29;20053;-75
2022/11/23 10:46:39;;;;;;;69.07;25.67;;;;;;;8.92;68.97;99249.06;4944306;29;20466;-76
2022/11/23 10:49:56;;;;;;;10.55;3.70;;;;;;;8.91;69.32;99245.63;4932154;29;20261;-76
2022/11/23 10:53:21;;;;;;;12.60;3.75;;;;;;;9.10;69.15;99240.03;4927766;29;20046;-76
2022/11/23 10:56:26;;;;;;;14.82;4.75;;;;;;;8.98;68.35;99231.25;4950830;29;20094;-75
2022/11/23 10:59:36;;;;;;;27.77;10.07;;;;;;;8.91;68.82;99224.75;4950850;29;20409;-75
2022/11/23 11:02:42;;;;;;;55.15;23.70;;;;;;;8.85;68.49;99215.56;4948592;28;20066;-75
2022/11/23 11:05:49;;;;;;;15.57;4.25;;;;;;;8.92;68.21;99210.78;4949279;29;20050;-75
2022/11/23 11:08:55;;;;;;;17.60;7.20;;;;;;;8.90;68.81;99204.81;4930497;29;20102;-76
2022/11/23 11:12:01;;;;;;;28.90;11.30;;;;;;;9.01;69.17;99204.97;4931574;29;20126;-75
2022/11/23 11:15:10;;;;;;;;;;;;;;;9.13;68.81;99194.66;4932632;29;20047;-75
2022/11/23 11:18:17;;;;;;;21.08;3.53;;;;;;;9.05;69.39;99198.59;4932242;29;19958;-76
2022/11/23 11:21:34;;;;;;;9.88;2.90;;;;;;;9.03;68.13;99195.28;4936821;29;20042;-76
2022/11/23 11:24:45;;;;;;;14.65;2.17;;;;;;;8.98;67.98;99192.13;4950472;29;20418;-75
2022/11/23 11:27:57;;;;;;;15.20;4.88;;;;;;;9.10;68.02;99181.81;4950490;29;20058;-75
2022/11/23 11:31:21;;;;;;;7.65;2.47;;;;;;;9.01;67.80;99176.28;4949865;29;20086;-76
2022/11/23 11:34:31;;;;;;;13.00;2.58;;;;;;;9.00;68.36;99161.59;4947422;29;20121;-77
2022/11/23 11:38:03;;;;;;;10.50;1.90;;;;;;;8.95;67.09;99163.66;4931310;29;20106;-76
2022/11/23 11:41:12;;;;;;;10.15;2.70;;;;;;;9.00;67.98;99163.38;4881560;29;20066;-76
2022/11/23 11:44:21;;;;;;;10.85;3.97;;;;;;;8.94;67.50;99159.38;4931125;29;20050;-76
2022/11/23 11:47:35;;;;;;;9.13;2.13;;;;;;;8.87;67.61;99163.34;4930857;29;20432;-76
2022/11/23 11:51:17;;;;;;;12.60;2.65;;;;;;;9.01;67.46;99144.16;4948629;29;20050;-76
2022/11/23 11:54:30;;;;;;;10.90;3.92;;;;;;;9.04;66.93;99150.00;4951225;29;20045;-76
2022/11/23 11:57:46;;;;;;;;;;;;;;;9.03;66.84;99145.72;4951714;29;20158;-77
2022/11/23 12:01:11;;;;;;;7.72;2.50;;;;;;;9.00;66.33;99134.69;4950409;29;19922;-76
2022/11/23 12:04:30;;;;;;;9.85;4.03;;;;;;;9.02;67.75;99131.00;4944058;29;20074;-85
2022/11/23 12:08:01;;;;;;;8.60;2.42;;;;;;;9.01;69.82;99138.94;4930144;29;20054;-82
2022/11/23 12:11:06;;;;;;;10.30;4.93;;;;;;;8.96;69.39;99133.19;4926746;29;20058;-81
2022/11/23 12:14:12;;;;;;;11.27;2.08;;;;;;;8.95;70.08;99131.53;4947855;28;20046;-81
2022/11/23 12:17:57;;;;;;;6.55;1.60;;;;;;;8.95;69.40;99137.59;4938347;29;20078;-80
2022/11/23 12:21:06;;;;;;;6.88;1.80;;;;;;;9.03;67.61;99135.31;4930518;29;20046;-82
2022/11/23 12:24:40;;;;;;;7.63;1.92;;;;;;;9.11;67.06;99139.16;4930528;29;20478;-81
2022/11/23 12:27:56;;;;;;;7.70;1.90;;;;;;;9.45;67.01;99135.91;4929434;29;20118;-81
2022/11/23 12:31:10;;;;;;;6.82;1.33;;;;;;;9.36;65.65;99128.72;4930145;29;20047;-79
2022/11/23 12:34:16;;;;;;;;;;;;;;;9.42;65.77;99125.66;4930353;29;20054;-79
2022/11/23 12:37:41;;;;;;;9.63;1.63;;;;;;;9.47;67.76;99117.50;4907903;29;19969;-80
2022/11/23 12:40:56;;;;;;;10.15;2.00;;;;;;;9.50;65.94;99125.94;4930161;29;20470;-81
2022/11/23 12:44:21;;;;;;;8.05;1.80;;;;;;;9.45;65.54;99120.25;4929574;29;20086;-80
2022/11/23 12:47:45;;;;;;;12.68;2.30;;;;;;;9.55;65.11;99121.25;4936633;29;20064;-79
2022/11/23 12:51:09;;;;;;;7.28;1.70;;;;;;;9.60;64.85;99125.31;4948680;29;20178;-84
2022/11/23 12:54:38;;;;;;;8.68;1.63;;;;;;;9.66;64.88;99122.25;4937692;29;20054;-79
2022/11/23 12:58:03;;;;;;;7.72;1.85;;;;;;;9.61;65.66;99116.56;4949277;29;20274;-79
2022/11/23 13:01:33;;;;;;;5.85;1.70;;;;;;;9.63;64.88;99117.25;4948607;29;20090;-80
2022/11/23 13:05:17;;;;;;;7.80;1.42;;;;;;;9.54;65.98;99103.94;4937767;29;20054;-81
2022/11/23 13:08:53;;;;;;;10.57;1.60;;;;;;;9.86;65.21;99103.44;4933045;29;20059;-81
2022/11/23 13:12:31;;;;;;;9.57;2.28;;;;;;;9.81;64.41;99095.06;4924688;29;20145;-79
2022/11/23 13:15:53;;;;;;;7.15;1.83;;;;;;;9.65;64.46;99094.50;4943415;29;20066;-75
2022/11/23 13:19:26;;;;;;;5.40;1.80;;;;;;;9.74;64.20;99093.84;4927391;29;20055;-75
2022/11/23 13:23:20;;;;;;;6.43;1.50;;;;;;;9.62;64.75;99071.25;4921880;29;20114;-76
2022/11/23 13:26:27;;;;;;;9.00;1.58;;;;;;;9.49;63.70;99063.44;4929446;29;20277;-75
2022/11/23 13:29:57;;;;;;;8.68;1.63;;;;;;;9.46;64.47;99059.28;4946163;29;20058;-74
2022/11/23 13:33:23;;;;;;;11.18;3.80;;;;;;;9.45;64.44;99052.41;4946305;29;20050;-75
2022/11/23 13:36:29;;;;;;;8.75;1.90;;;;;;;9.47;64.80;99045.28;4933205;29;20062;-72
2022/11/23 13:39:44;;;;;;;9.13;1.70;;;;;;;9.48;65.98;99046.97;4938965;29;20093;-79
2022/11/23 13:43:00;;;;;;;5.25;1.50;;;;;;;9.54;68.48;99048.31;4941808;29;20146;-78
2022/11/23 13:46:27;;;;;;;7.32;1.27;;;;;;;9.55;67.31;99040.38;4933931;29;20098;-72
2022/11/23 13:49:38;;;;;;;11.65;3.38;;;;;;;9.50;64.29;99032.03;4932901;29;20588;-74
2022/11/23 13:52:49;;;;;;;9.70;3.17;;;;;;;9.54;64.68;99030.88;4933038;29;20085;-74
2022/11/23 13:55:56;;;;;;;10.18;3.35;;;;;;;9.64;64.42;99035.44;4933452;29;20093;-73
2022/11/23 13:59:24;;;;;;;8.60;2.47;;;;;;;9.61;66.78;99030.44;4933064;29;20525;-75
2022/11/23 14:02:29;;;;;;;11.10;1.90;;;;;;;9.45;65.50;99028.94;4932617;29;20074;-75
2022/11/23 14:05:48;;;;;;;6.25;1.75;;;;;;;9.39;65.73;99031.13;4933223;29;20051;-76
2022/11/23 14:09:42;;;;;;;9.07;2.45;;;;;;;9.25;67.34;99029.50;4932972;29;20035;-75
2022/11/23 14:13:13;;;;;;;7.28;1.80;;;;;;;9.23;66.12;99018.34;4932990;29;20114;-74
2022/11/23 14:16:36;;;;;;;11.02;1.65;;;;;;;9.19;67.05;99016.88;4921002;29;20051;-77
2022/11/23 14:20:17;;;;;;;10.43;1.60;;;;;;;9.21;67.08;99017.63;4933295;29;20043;-75
2022/11/23 14:23:43;;;;;;;13.63;1.58;;;;;;;9.20;67.19;99019.41;4921468;29;20610;-75
2022/11/23 14:27:17;;;;;;;4.93;1.08;;;;;;;9.01;69.65;99022.47;4948458;29;20050;-75
2022/11/23 14:30:36;;;;;;;8.32;1.40;;;;;;;9.00;69.17;99019.97;4939430;29;20055;-75
2022/11/23 14:34:00;;;;;;;6.65;1.48;;;;;;;8.89;70.29;99025.91;4951499;29;20057;-74
2022/11/23 14:37:08;;;;;;;6.38;2.67;;;;;;;8.80;67.47;99029.16;4951944;28;20039;-75
2022/11/23 14:40:24;;;;;;;6.32;1.85;;;;;;;8.92;67.00;99033.53;4949002;29;20046;-75
2022/11/23 14:43:28;;;;;;;6.50;2.30;;;;;;;8.88;67.16;99029.47;4947897;29;20045;-75
2022/11/23 14:46:31;;;;;;;14.55;6.32;;;;;;;8.76;67.46;99027.69;4949450;29;20114;-75
2022/11/23 14:49:36;;;;;;;7.35;2.58;;;;;;;8.77;69.49;99029.34;4951344;29;20062;-75
2022/11/23 14:52:39;;;;;;;11.10;2.65;;;;;;;8.72;70.48;99028.84;4952275;29;20049;-75
2022/11/23 14:55:46;;;;;;;11.07;6.03;;;;;;;8.65;70.22;99030.19;4933593;29;20141;-74
2022/11/23 14:58:50;;;;;;;8.90;2.25;;;;;;;8.57;70.95;99031.56;4932681;29;20066;-74
2022/11/23 15:02:04;;;;;;;11.40;1.67;;;;;;;8.55;71.35;99035.19;4932114;29;20111;-75
2022/11/23 15:05:22;;;;;;;14.18;3.53;;;;;;;8.60;71.50;99036.56;4932320;29;20117;-74
2022/11/23 15:08:33;;;;;;;11.38;2.95;;;;;;;8.48;72.80;99032.16;4938729;29;20129;-75
2022/11/23 15:11:38;;;;;;;15.80;5.00;;;;;;;8.54;72.89;99039.56;4952021;29;20090;-73